Time;durP1;ratioP1;P1;durP2;ratioP2;P2;SDS_P1;SDS_P2;PMS_P1;PMS_P2;Temp;Humidity;BMP_temperature;BMP_pressure;BME280_temperature;BME280_humidity;BME280_pressure;Samples;Min_cycle;Max_cycle;Signal;HPM_P1;HPM_P2
2021/10/20 00:01:52;;;;;;;3.72;2.50;;;;;;;;;;5080332;28;20044;-94
2021/10/20 00:04:19;;;;;;;3.13;2.05;;;;;;;;;;5083573;28;20049;-95
2021/10/20 00:06:45;;;;;;;3.10;2.15;;;;;;;;;;5086273;28;20036;-94
2021/10/20 00:09:12;;;;;;;3.97;2.17;;;;;;;;;;5079815;28;20055;-95
2021/10/20 00:11:38;;;;;;;3.83;2.47;;;;;;;;;;5083550;28;20134;-95
2021/10/20 00:14:05;;;;;;;4.22;2.47;;;;;;;;;;5089219;28;20037;-94
2021/10/20 00:16:32;;;;;;;3.78;2.30;;;;;;;;;;5075166;28;20037;-92
2021/10/20 00:18:58;;;;;;;3.60;2.13;;;;;;;;;;5070016;28;20035;-93
2021/10/20 00:21:27;;;;;;;3.92;2.60;;;;;;;;;;5070982;28;20291;-93
2021/10/20 00:23:54;;;;;;;3.88;2.70;;;;;;;;;;5081460;28;20040;-93
2021/10/20 00:26:20;;;;;;;3.97;2.20;;;;;;;;;;5075705;28;20037;-93
2021/10/20 00:28:47;;;;;;;3.90;2.30;;;;;;;;;;5087886;28;20037;-93
2021/10/20 00:31:13;;;;;;;4.32;2.30;;;;;;;;;;5092189;28;20032;-95
2021/10/20 00:33:40;;;;;;;3.67;2.50;;;;;;;;;;5090313;28;20044;-94
2021/10/20 00:36:06;;;;;;;3.63;2.50;;;;;;;;;;5085288;28;20024;-94
2021/10/20 00:38:32;;;;;;;3.83;2.47;;;;;;;;;;5076916;28;20032;-93
2021/10/20 00:40:59;;;;;;;3.42;2.35;;;;;;;;;;5075746;28;20041;-87
2021/10/20 00:43:26;;;;;;;3.17;2.40;;;;;;;;;;5069386;28;20064;-92
2021/10/20 00:45:52;;;;;;;3.45;2.30;;;;;;;;;;5072939;28;20044;-91
2021/10/20 00:48:19;;;;;;;4.20;2.40;;;;;;;;;;5072646;28;20049;-92
2021/10/20 00:50:46;;;;;;;3.47;2.40;;;;;;;;;;5071966;28;20033;-92
2021/10/20 00:53:12;;;;;;;4.43;2.58;;;;;;;;;;5071778;28;20048;-90
2021/10/20 00:55:39;;;;;;;3.58;2.50;;;;;;;;;;5072551;28;20044;-91
2021/10/20 00:58:06;;;;;;;3.50;2.45;;;;;;;;;;5070629;28;20039;-91
2021/10/20 01:00:32;;;;;;;3.45;2.22;;;;;;;;;;5054088;28;20044;-90
2021/10/20 01:02:59;;;;;;;4.05;2.40;;;;;;;;;;5071526;28;20047;-81
2021/10/20 01:05:26;;;;;;;4.38;2.42;;;;;;;;;;5072719;28;20033;-92
2021/10/20 01:07:53;;;;;;;3.65;2.30;;;;;;;;;;5070926;28;20029;-91
2021/10/20 01:10:20;;;;;;;3.78;2.25;;;;;;;;;;5075458;28;20036;-94
2021/10/20 01:12:46;;;;;;;3.92;2.25;;;;;;;;;;5073015;28;20035;-93
2021/10/20 01:15:14;;;;;;;4.25;2.40;;;;;;;;;;5076346;28;20029;-91
2021/10/20 01:17:41;;;;;;;3.40;2.28;;;;;;;;;;5078934;28;20036;-92
2021/10/20 01:20:09;;;;;;;4.32;2.65;;;;;;;;;;5076071;28;20037;-92
2021/10/20 01:22:36;;;;;;;3.42;2.40;;;;;;;;;;5070490;28;20087;-92
2021/10/20 01:25:03;;;;;;;3.95;2.40;;;;;;;;;;5072358;28;20044;-90
2021/10/20 01:27:30;;;;;;;4.20;2.60;;;;;;;;;;5076305;28;20036;-92
2021/10/20 01:30:00;;;;;;;3.97;2.42;;;;;;;;;;5078149;28;20062;-94
2021/10/20 01:32:27;;;;;;;3.17;2.17;;;;;;;;;;5086284;28;21364;-89
2021/10/20 01:34:53;;;;;;;3.47;2.30;;;;;;;;;;5079246;28;20044;-94
2021/10/20 01:37:21;;;;;;;4.30;2.33;;;;;;;;;;5079759;28;20090;-93
2021/10/20 01:39:47;;;;;;;3.30;2.40;;;;;;;;;;5086047;28;20040;-95
2021/10/20 01:42:14;;;;;;;4.00;2.47;;;;;;;;;;5084834;28;20032;-94
2021/10/20 01:44:40;;;;;;;3.83;2.30;;;;;;;;;;5062054;28;20033;-90
2021/10/20 01:47:07;;;;;;;3.45;2.30;;;;;;;;;;5074870;28;20020;-92
2021/10/20 01:49:33;;;;;;;3.72;2.30;;;;;;;;;;5066699;28;20580;-92
2021/10/20 01:52:00;;;;;;;4.68;2.30;;;;;;;;;;5076631;28;20041;-89
2021/10/20 01:54:26;;;;;;;3.80;2.50;;;;;;;;;;5077783;28;20507;-92
2021/10/20 01:56:54;;;;;;;3.15;2.25;;;;;;;;;;5071759;28;20029;-87
2021/10/20 01:59:21;;;;;;;4.20;2.40;;;;;;;;;;5079615;28;20534;-94
2021/10/20 02:01:47;;;;;;;3.50;2.20;;;;;;;;;;5078018;28;20044;-94
2021/10/20 02:04:14;;;;;;;3.55;2.22;;;;;;;;;;5083998;28;20049;-94
2021/10/20 02:06:42;;;;;;;3.22;2.05;;;;;;;;;;5088833;28;20041;-95
2021/10/20 02:09:09;;;;;;;3.88;2.47;;;;;;;;;;5077407;28;20033;-90
2021/10/20 02:11:37;;;;;;;4.05;2.28;;;;;;;;;;5073567;28;20041;-94
2021/10/20 02:14:04;;;;;;;3.75;2.55;;;;;;;;;;5079479;28;20029;-96
2021/10/20 02:16:31;;;;;;;3.38;2.13;;;;;;;;;;5083561;28;20035;-95
2021/10/20 02:18:57;;;;;;;3.42;2.10;;;;;;;;;;5083823;28;20037;-94
2021/10/20 02:21:24;;;;;;;4.70;2.17;;;;;;;;;;5093973;28;20024;-93
2021/10/20 02:23:50;;;;;;;4.97;2.10;;;;;;;;;;5077632;28;20037;-94
2021/10/20 02:26:16;;;;;;;3.33;2.42;;;;;;;;;;5083245;28;20056;-94
2021/10/20 02:28:43;;;;;;;3.78;2.30;;;;;;;;;;5080384;28;20035;-93
2021/10/20 02:31:09;;;;;;;3.45;2.25;;;;;;;;;;5073130;28;20044;-93
2021/10/20 02:33:36;;;;;;;3.28;2.20;;;;;;;;;;5078335;28;20037;-93
2021/10/20 02:36:02;;;;;;;2.90;2.20;;;;;;;;;;5085904;28;20040;-93
2021/10/20 02:38:29;;;;;;;2.80;2.00;;;;;;;;;;5069753;28;20028;-91
2021/10/20 02:40:55;;;;;;;3.45;2.17;;;;;;;;;;5067384;28;20033;-92
2021/10/20 02:43:22;;;;;;;3.47;2.00;;;;;;;;;;5069812;28;20028;-95
2021/10/20 02:45:48;;;;;;;3.35;2.20;;;;;;;;;;5075408;28;20037;-90
2021/10/20 02:48:14;;;;;;;3.25;1.80;;;;;;;;;;5076247;28;20033;-91
2021/10/20 02:50:41;;;;;;;3.22;2.05;;;;;;;;;;5078005;28;20028;-94
2021/10/20 02:53:07;;;;;;;3.80;2.28;;;;;;;;;;5071439;28;20573;-92
2021/10/20 02:55:35;;;;;;;3.30;2.08;;;;;;;;;;5085198;28;20039;-96
2021/10/20 02:58:02;;;;;;;3.97;2.25;;;;;;;;;;5089809;28;20071;-85
2021/10/20 03:00:28;;;;;;;3.10;1.90;;;;;;;;;;5091921;28;20016;-96
2021/10/20 03:02:55;;;;;;;4.00;2.40;;;;;;;;;;5089111;28;20032;-95
2021/10/20 03:05:21;;;;;;;3.20;2.00;;;;;;;;;;5083800;28;20049;-96
2021/10/20 03:07:48;;;;;;;3.05;1.88;;;;;;;;;;5082313;28;20033;-93
2021/10/20 03:10:14;;;;;;;4.22;2.20;;;;;;;;;;5072056;28;20033;-91
2021/10/20 03:12:41;;;;;;;3.00;2.00;;;;;;;;;;5068355;28;20532;-87
2021/10/20 03:15:08;;;;;;;4.28;2.15;;;;;;;;;;5069254;28;20024;-91
2021/10/20 03:17:34;;;;;;;2.67;1.90;;;;;;;;;;5063579;28;20036;-83
2021/10/20 03:20:01;;;;;;;3.13;2.10;;;;;;;;;;5057475;28;20564;-82
2021/10/20 03:22:27;;;;;;;3.20;2.00;;;;;;;;;;5065131;28;20056;-82
2021/10/20 03:24:54;;;;;;;2.97;1.90;;;;;;;;;;5068264;28;20447;-83
2021/10/20 03:27:20;;;;;;;3.40;2.10;;;;;;;;;;5064757;28;20075;-82
2021/10/20 03:29:46;;;;;;;4.05;2.20;;;;;;;;;;5059230;28;20057;-83
2021/10/20 03:32:13;;;;;;;3.22;1.95;;;;;;;;;;5063910;28;20056;-83
2021/10/20 03:34:39;;;;;;;3.13;2.30;;;;;;;;;;5071522;28;20052;-83
2021/10/20 03:37:06;;;;;;;3.60;2.20;;;;;;;;;;5062791;28;20981;-83
2021/10/20 03:39:32;;;;;;;3.15;2.00;;;;;;;;;;5066774;28;20500;-84
2021/10/20 03:41:58;;;;;;;3.08;2.17;;;;;;;;;;5063552;28;20067;-85
2021/10/20 03:44:25;;;;;;;3.80;2.30;;;;;;;;;;5067607;28;20089;-85
2021/10/20 03:46:51;;;;;;;3.20;2.10;;;;;;;;;;5068643;28;20060;-84
2021/10/20 03:49:18;;;;;;;3.92;2.10;;;;;;;;;;5071616;28;20060;-84
2021/10/20 03:51:44;;;;;;;4.03;2.30;;;;;;;;;;5069150;28;20051;-85
2021/10/20 03:54:10;;;;;;;3.17;2.10;;;;;;;;;;5060276;28;20052;-83
2021/10/20 03:56:37;;;;;;;2.78;2.00;;;;;;;;;;5059946;28;20072;-85
2021/10/20 03:59:03;;;;;;;3.17;2.28;;;;;;;;;;5064053;28;20056;-88
2021/10/20 04:01:29;;;;;;;4.63;2.45;;;;;;;;;;5065238;28;20049;-83
2021/10/20 04:03:56;;;;;;;5.32;1.90;;;;;;;;;;5052173;28;20064;-85
2021/10/20 04:06:22;;;;;;;3.65;2.08;;;;;;;;;;5071042;28;20052;-85
2021/10/20 04:08:49;;;;;;;3.03;1.95;;;;;;;;;;5063680;28;20048;-87
2021/10/20 04:11:15;;;;;;;2.90;2.00;;;;;;;;;;5065303;28;20052;-87
2021/10/20 04:13:42;;;;;;;3.47;2.05;;;;;;;;;;5061363;28;20730;-83
2021/10/20 04:16:10;;;;;;;3.60;2.10;;;;;;;;;;5063988;28;20040;-84
2021/10/20 04:18:37;;;;;;;3.42;2.30;;;;;;;;;;5076232;28;20053;-82
2021/10/20 04:21:04;;;;;;;3.45;2.15;;;;;;;;;;5063156;28;20491;-83
2021/10/20 04:23:30;;;;;;;3.03;2.05;;;;;;;;;;5067576;28;20091;-82
2021/10/20 04:25:56;;;;;;;2.70;1.80;;;;;;;;;;5071014;28;20512;-83
2021/10/20 04:28:23;;;;;;;2.80;1.88;;;;;;;;;;5061463;28;20060;-82
2021/10/20 04:30:49;;;;;;;3.70;1.98;;;;;;;;;;5065169;28;20076;-83
2021/10/20 04:33:16;;;;;;;3.17;2.10;;;;;;;;;;5063953;28;20075;-81
2021/10/20 04:35:42;;;;;;;3.63;2.10;;;;;;;;;;5064882;28;20060;-83
2021/10/20 04:38:08;;;;;;;2.67;1.95;;;;;;;;;;5064353;28;20048;-83
2021/10/20 04:40:35;;;;;;;3.25;2.00;;;;;;;;;;5064827;28;20063;-84
2021/10/20 04:43:01;;;;;;;2.85;2.00;;;;;;;;;;5067767;28;20063;-84
2021/10/20 04:45:28;;;;;;;4.28;1.90;;;;;;;;;;5066197;28;20068;-85
2021/10/20 04:47:54;;;;;;;2.85;1.95;;;;;;;;;;5070698;28;20114;-84
2021/10/20 04:50:20;;;;;;;3.92;2.08;;;;;;;;;;5070284;28;20052;-84
2021/10/20 04:52:47;;;;;;;3.58;2.15;;;;;;;;;;5068163;28;20075;-83
2021/10/20 04:55:13;;;;;;;3.00;1.80;;;;;;;;;;5064849;28;20090;-83
2021/10/20 04:57:40;;;;;;;3.13;2.15;;;;;;;;;;5069004;28;20557;-84
2021/10/20 05:00:07;;;;;;;3.45;1.85;;;;;;;;;;5067745;28;20483;-84
2021/10/20 05:02:36;;;;;;;3.95;2.05;;;;;;;;;;5070423;28;20574;-84
2021/10/20 05:05:03;;;;;;;3.50;2.13;;;;;;;;;;5069039;28;20120;-83
2021/10/20 05:07:30;;;;;;;2.47;1.67;;;;;;;;;;5068020;28;20052;-83
2021/10/20 05:09:56;;;;;;;2.50;1.70;;;;;;;;;;5068916;28;20059;-83
2021/10/20 05:12:23;;;;;;;3.08;2.05;;;;;;;;;;5067672;28;20139;-84
2021/10/20 05:14:49;;;;;;;2.95;1.77;;;;;;;;;;5073841;28;20056;-83
2021/10/20 05:17:15;;;;;;;3.35;2.08;;;;;;;;;;5067328;28;20060;-82
2021/10/20 05:19:42;;;;;;;3.20;1.83;;;;;;;;;;5067966;28;20326;-82
2021/10/20 05:22:08;;;;;;;3.28;2.10;;;;;;;;;;5065589;28;20457;-82
2021/10/20 05:24:35;;;;;;;3.10;1.90;;;;;;;;;;5068037;28;20060;-82
2021/10/20 05:27:02;;;;;;;2.67;1.75;;;;;;;;;;5062132;28;20079;-82
2021/10/20 05:29:32;;;;;;;3.45;2.08;;;;;;;;;;5061733;28;20052;-82
2021/10/20 05:31:59;;;;;;;3.15;2.20;;;;;;;;;;5061659;28;20045;-80
2021/10/20 05:34:26;;;;;;;3.13;2.13;;;;;;;;;;5062501;28;20553;-81
2021/10/20 05:36:52;;;;;;;3.45;2.03;;;;;;;;;;5065458;28;20454;-81
2021/10/20 05:39:19;;;;;;;4.03;2.40;;;;;;;;;;5059375;28;20052;-81
2021/10/20 05:41:45;;;;;;;4.22;2.38;;;;;;;;;;5062643;28;20086;-86
2021/10/20 05:44:13;;;;;;;3.42;2.20;;;;;;;;;;5055843;28;20074;-84
2021/10/20 05:46:40;;;;;;;3.67;1.75;;;;;;;;;;5066451;28;20572;-87
2021/10/20 05:49:06;;;;;;;3.03;1.90;;;;;;;;;;5061533;28;20728;-88
2021/10/20 05:51:32;;;;;;;3.22;2.10;;;;;;;;;;5067825;28;20108;-87
2021/10/20 05:53:59;;;;;;;4.60;2.28;;;;;;;;;;5073115;28;20056;-88
2021/10/20 05:56:25;;;;;;;3.38;2.00;;;;;;;;;;5063792;28;20040;-87
2021/10/20 05:58:52;;;;;;;3.53;2.03;;;;;;;;;;5069735;28;20028;-88
2021/10/20 06:01:19;;;;;;;2.95;1.80;;;;;;;;;;5063342;28;20721;-88
2021/10/20 06:03:45;;;;;;;3.17;2.28;;;;;;;;;;5066056;28;20466;-87
2021/10/20 06:06:12;;;;;;;3.22;1.90;;;;;;;;;;5062379;28;20067;-87
2021/10/20 06:08:38;;;;;;;2.90;2.05;;;;;;;;;;5073201;28;20503;-86
2021/10/20 06:11:04;;;;;;;3.20;1.90;;;;;;;;;;5069771;28;20089;-87
2021/10/20 06:13:31;;;;;;;3.88;2.20;;;;;;;;;;5063749;28;20033;-86
2021/10/20 06:15:57;;;;;;;3.50;2.15;;;;;;;;;;5067405;28;20032;-86
2021/10/20 06:18:24;;;;;;;2.85;1.90;;;;;;;;;;5062740;28;20064;-86
2021/10/20 06:20:50;;;;;;;3.30;2.30;;;;;;;;;;5069165;28;20064;-85
2021/10/20 06:23:18;;;;;;;4.72;1.98;;;;;;;;;;5068271;28;20064;-85
2021/10/20 06:25:44;;;;;;;2.60;1.85;;;;;;;;;;5069879;28;20070;-85
2021/10/20 06:28:10;;;;;;;3.00;1.95;;;;;;;;;;5064180;28;20094;-86
2021/10/20 06:30:37;;;;;;;2.83;1.92;;;;;;;;;;5071107;28;20064;-85
2021/10/20 06:33:03;;;;;;;3.50;2.15;;;;;;;;;;5068680;28;20559;-85
2021/10/20 06:35:30;;;;;;;3.65;2.20;;;;;;;;;;5067646;28;20037;-85
2021/10/20 06:37:56;;;;;;;2.70;1.70;;;;;;;;;;5068121;28;20063;-86
2021/10/20 06:40:23;;;;;;;2.95;2.05;;;;;;;;;;5069215;28;20033;-86
2021/10/20 06:42:50;;;;;;;3.10;2.03;;;;;;;;;;5058237;28;20682;-86
2021/10/20 06:45:16;;;;;;;3.35;2.20;;;;;;;;;;5071612;28;20067;-87
2021/10/20 06:47:43;;;;;;;4.18;2.05;;;;;;;;;;5070531;28;20045;-87
2021/10/20 06:50:09;;;;;;;3.00;2.08;;;;;;;;;;5067927;28;20040;-88
2021/10/20 06:52:36;;;;;;;2.92;2.08;;;;;;;;;;5073826;28;20036;-89
2021/10/20 06:55:03;;;;;;;3.05;2.08;;;;;;;;;;5069493;28;20436;-89
2021/10/20 06:57:30;;;;;;;3.05;2.00;;;;;;;;;;5068761;28;20048;-88
2021/10/20 06:59:56;;;;;;;3.45;1.95;;;;;;;;;;5068784;28;20037;-86
2021/10/20 07:02:23;;;;;;;3.65;2.08;;;;;;;;;;5075944;28;20071;-89
2021/10/20 07:04:49;;;;;;;3.50;2.28;;;;;;;;;;5073019;28;20056;-85
2021/10/20 07:07:15;;;;;;;2.60;1.80;;;;;;;;;;5068366;28;20531;-87
2021/10/20 07:09:42;;;;;;;2.83;1.88;;;;;;;;;;5067253;28;20056;-86
2021/10/20 07:12:09;;;;;;;3.28;2.17;;;;;;;;;;5065288;28;20047;-85
2021/10/20 07:14:35;;;;;;;4.28;2.00;;;;;;;;;;5069492;28;20040;-85
2021/10/20 07:17:04;;;;;;;3.20;2.10;;;;;;;;;;5075577;28;20048;-84
2021/10/20 07:19:31;;;;;;;3.22;2.10;;;;;;;;;;5064442;28;20145;-86
2021/10/20 07:21:59;;;;;;;3.40;1.92;;;;;;;;;;5069377;28;20093;-85
2021/10/20 07:24:25;;;;;;;2.63;1.73;;;;;;;;;;5065212;28;20078;-86
2021/10/20 07:26:52;;;;;;;3.10;2.05;;;;;;;;;;5068677;28;20460;-87
2021/10/20 07:29:18;;;;;;;3.45;2.00;;;;;;;;;;5070693;28;20063;-86
2021/10/20 07:31:45;;;;;;;3.05;2.10;;;;;;;;;;5072002;28;20056;-86
2021/10/20 07:34:11;;;;;;;3.65;2.10;;;;;;;;;;5071335;28;20055;-86
2021/10/20 07:36:38;;;;;;;3.38;2.10;;;;;;;;;;5069623;28;20509;-87
2021/10/20 07:39:05;;;;;;;3.67;2.30;;;;;;;;;;5070260;28;20542;-85
2021/10/20 07:41:31;;;;;;;3.03;2.03;;;;;;;;;;5062268;28;20052;-87
2021/10/20 07:43:58;;;;;;;3.33;2.15;;;;;;;;;;5069749;28;20052;-87
2021/10/20 07:46:25;;;;;;;3.30;1.98;;;;;;;;;;5070244;28;20037;-85
2021/10/20 07:48:51;;;;;;;2.85;1.90;;;;;;;;;;5065967;28;20060;-87
2021/10/20 07:51:18;;;;;;;4.53;2.10;;;;;;;;;;5067220;28;20519;-86
2021/10/20 07:53:44;;;;;;;3.92;2.05;;;;;;;;;;5063867;28;20037;-86
2021/10/20 07:56:11;;;;;;;3.65;2.08;;;;;;;;;;5070248;28;20036;-86
2021/10/20 07:58:37;;;;;;;2.78;1.92;;;;;;;;;;5060273;28;20067;-86
2021/10/20 08:01:03;;;;;;;3.00;1.90;;;;;;;;;;5063362;28;20704;-86
2021/10/20 08:03:30;;;;;;;2.72;1.80;;;;;;;;;;5066820;28;20097;-84
2021/10/20 08:05:56;;;;;;;2.95;1.83;;;;;;;;;;5070669;28;20067;-86
2021/10/20 08:08:23;;;;;;;2.95;1.88;;;;;;;;;;5070724;28;20039;-87
2021/10/20 08:10:49;;;;;;;2.22;1.60;;;;;;;;;;5076252;28;20055;-86
2021/10/20 08:13:15;;;;;;;4.05;2.47;;;;;;;;;;5070226;28;20374;-86
2021/10/20 08:15:42;;;;;;;3.67;1.90;;;;;;;;;;5071329;28;20404;-86
2021/10/20 08:18:11;;;;;;;2.78;1.90;;;;;;;;;;5073804;28;20109;-87
2021/10/20 08:20:38;;;;;;;2.80;1.90;;;;;;;;;;5075011;28;20030;-86
2021/10/20 08:23:05;;;;;;;2.67;1.70;;;;;;;;;;5073145;28;20074;-85
2021/10/20 08:25:35;;;;;;;2.95;1.80;;;;;;;;;;5078698;28;20029;-85
2021/10/20 08:28:02;;;;;;;2.83;1.85;;;;;;;;;;5065271;28;20122;-85
2021/10/20 08:30:29;;;;;;;3.30;2.00;;;;;;;;;;5074938;28;20040;-86
2021/10/20 08:32:57;;;;;;;3.55;1.80;;;;;;;;;;5077693;28;20028;-86
2021/10/20 08:35:23;;;;;;;2.72;1.65;;;;;;;;;;5072865;28;20037;-86
2021/10/20 08:37:56;;;;;;;2.90;1.70;;;;;;;;;;5070025;28;20060;-87
2021/10/20 08:40:28;;;;;;;2.75;1.80;;;;;;;;;;5073258;28;20479;-87
2021/10/20 08:42:54;;;;;;;3.20;1.75;;;;;;;;;;5073741;28;20044;-87
2021/10/20 08:45:21;;;;;;;2.38;1.85;;;;;;;;;;5073678;28;20040;-87
2021/10/20 08:47:47;;;;;;;2.58;1.80;;;;;;;;;;5072131;28;20068;-87
2021/10/20 08:50:21;;;;;;;2.40;1.77;;;;;;;;;;5068944;28;20063;-88
2021/10/20 08:52:49;;;;;;;2.78;1.70;;;;;;;;;;5067860;28;20025;-87
2021/10/20 08:55:16;;;;;;;2.88;1.70;;;;;;;;;;5070332;28;20025;-88
2021/10/20 08:57:44;;;;;;;3.45;1.77;;;;;;;;;;5072395;28;20033;-88
2021/10/20 09:00:11;;;;;;;3.38;1.85;;;;;;;;;;5071435;28;20040;-89
2021/10/20 09:02:41;;;;;;;2.83;1.70;;;;;;;;;;5071095;28;20040;-88
2021/10/20 09:05:08;;;;;;;2.60;1.70;;;;;;;;;;5072509;28;20045;-87
2021/10/20 09:07:37;;;;;;;6.22;1.80;;;;;;;;;;5067097;28;20036;-87
2021/10/20 09:10:04;;;;;;;4.18;2.08;;;;;;;;;;5071749;28;20060;-87
2021/10/20 09:12:36;;;;;;;2.20;1.50;;;;;;;;;;5068893;28;20492;-87
2021/10/20 09:15:06;;;;;;;2.35;1.33;;;;;;;;;;5067816;28;20195;-86
2021/10/20 09:17:43;;;;;;;2.75;1.63;;;;;;;;;;5071701;28;20496;-85
2021/10/20 09:20:20;;;;;;;3.50;1.90;;;;;;;;;;5067223;28;20064;-85
2021/10/20 09:22:56;;;;;;;2.95;1.80;;;;;;;;;;5069648;28;20068;-86
2021/10/20 09:25:25;;;;;;;3.22;1.73;;;;;;;;;;5063506;28;20121;-86
2021/10/20 09:27:53;;;;;;;2.85;1.80;;;;;;;;;;5071988;28;20061;-87
2021/10/20 09:30:20;;;;;;;3.25;1.90;;;;;;;;;;5068397;28;20064;-86
2021/10/20 09:32:49;;;;;;;3.90;1.77;;;;;;;;;;5070919;28;20123;-86
2021/10/20 09:35:15;;;;;;;2.38;1.67;;;;;;;;;;5067425;28;20056;-87
2021/10/20 09:37:42;;;;;;;3.00;1.88;;;;;;;;;;5070881;28;20048;-85
2021/10/20 09:40:13;;;;;;;3.00;1.60;;;;;;;;;;5062971;28;20117;-85
2021/10/20 09:42:44;;;;;;;2.50;1.80;;;;;;;;;;5068937;28;20573;-85
2021/10/20 09:45:10;;;;;;;2.20;1.60;;;;;;;;;;5070044;28;20033;-85
2021/10/20 09:47:38;;;;;;;3.20;1.98;;;;;;;;;;5062431;28;20134;-85
2021/10/20 09:50:06;;;;;;;2.90;1.95;;;;;;;;;;5070249;28;20052;-85
2021/10/20 09:52:43;;;;;;;2.85;1.83;;;;;;;;;;5069849;28;20090;-86
2021/10/20 09:55:13;;;;;;;2.65;1.60;;;;;;;;;;5069202;28;20028;-86
2021/10/20 09:57:40;;;;;;;3.22;1.90;;;;;;;;;;5067485;28;20067;-87
2021/10/20 10:00:09;;;;;;;3.45;2.03;;;;;;;;;;5065294;28;20040;-87
2021/10/20 10:02:36;;;;;;;2.95;1.88;;;;;;;;;;5070722;28;20040;-85
2021/10/20 10:05:02;;;;;;;3.45;2.30;;;;;;;;;;5070834;28;20052;-84
2021/10/20 10:07:29;;;;;;;2.58;1.90;;;;;;;;;;5072063;28;20032;-85
2021/10/20 10:09:56;;;;;;;2.97;1.85;;;;;;;;;;5068781;28;20503;-86
2021/10/20 10:12:26;;;;;;;2.97;2.10;;;;;;;;;;5059730;28;20057;-84
2021/10/20 10:14:55;;;;;;;2.92;1.98;;;;;;;;;;5066464;28;20056;-85
2021/10/20 10:17:22;;;;;;;3.42;2.05;;;;;;;;;;5065514;28;22488;-84
2021/10/20 10:19:49;;;;;;;3.58;2.17;;;;;;;;;;5060934;28;20137;-85
2021/10/20 10:22:20;;;;;;;3.15;2.13;;;;;;;;;;5065016;28;20396;-84
2021/10/20 10:24:46;;;;;;;3.22;2.08;;;;;;;;;;5064037;28;20560;-84
2021/10/20 10:27:13;;;;;;;3.88;2.13;;;;;;;;;;5068377;28;20142;-85
2021/10/20 10:29:56;;;;;;;3.33;1.90;;;;;;;;;;5066688;28;20086;-84
2021/10/20 10:32:26;;;;;;;2.95;1.92;;;;;;;;;;5064890;28;20129;-84
2021/10/20 10:34:53;;;;;;;3.58;2.08;;;;;;;;;;5064809;28;20064;-85
2021/10/20 10:37:25;;;;;;;3.40;2.05;;;;;;;;;;5065142;28;20523;-84
2021/10/20 10:39:51;;;;;;;4.43;2.08;;;;;;;;;;5056038;28;20090;-85
2021/10/20 10:42:18;;;;;;;4.45;2.00;;;;;;;;;;5071459;28;20032;-85
2021/10/20 10:44:48;;;;;;;3.25;2.10;;;;;;;;;;5062867;28;20494;-85
2021/10/20 10:47:20;;;;;;;3.08;2.10;;;;;;;;;;5071104;28;20067;-85
2021/10/20 10:49:52;;;;;;;3.55;2.17;;;;;;;;;;5076657;28;20040;-84
2021/10/20 10:52:28;;;;;;;3.55;2.40;;;;;;;;;;5067205;28;20052;-85
2021/10/20 10:54:54;;;;;;;3.78;2.38;;;;;;;;;;5062072;28;20090;-85
2021/10/20 10:57:21;;;;;;;3.38;2.13;;;;;;;;;;5067537;28;20404;-84
2021/10/20 10:59:54;;;;;;;3.15;2.17;;;;;;;;;;5064448;28;20067;-84
2021/10/20 11:02:39;;;;;;;2.58;2.00;;;;;;;;;;5065607;28;20072;-85
2021/10/20 11:05:06;;;;;;;4.03;2.30;;;;;;;;;;5061634;28;20565;-84
2021/10/20 11:07:33;;;;;;;3.05;2.10;;;;;;;;;;5055731;28;20490;-84
2021/10/20 11:10:00;;;;;;;4.20;2.30;;;;;;;;;;5061883;28;20052;-84
2021/10/20 11:12:27;;;;;;;3.30;2.15;;;;;;;;;;5066612;28;20390;-85
2021/10/20 11:14:55;;;;;;;3.78;2.33;;;;;;;;;;5068393;28;20538;-84
2021/10/20 11:17:22;;;;;;;3.92;2.20;;;;;;;;;;5067697;28;20149;-85
2021/10/20 11:19:49;;;;;;;4.38;2.20;;;;;;;;;;5070561;28;20051;-84
2021/10/20 11:22:19;;;;;;;3.47;2.10;;;;;;;;;;5065118;28;20025;-83
2021/10/20 11:24:47;;;;;;;2.72;2.00;;;;;;;;;;5062497;28;20055;-84
2021/10/20 11:27:14;;;;;;;3.65;2.20;;;;;;;;;;5066379;28;20512;-84
2021/10/20 11:29:48;;;;;;;3.85;2.28;;;;;;;;;;5068158;28;20037;-84
2021/10/20 11:32:15;;;;;;;3.20;2.35;;;;;;;;;;5067831;28;20036;-83
2021/10/20 11:34:46;;;;;;;3.75;2.33;;;;;;;;;;5064572;28;20495;-84
2021/10/20 11:37:15;;;;;;;3.78;2.60;;;;;;;;;;5063265;28;20056;-83
2021/10/20 11:39:42;;;;;;;3.92;1.98;;;;;;;;;;5061949;28;20433;-85
2021/10/20 11:42:12;;;;;;;3.55;2.33;;;;;;;;;;5061427;28;20064;-85
2021/10/20 11:44:40;;;;;;;3.70;2.72;;;;;;;;;;5066804;28;20365;-86
2021/10/20 11:47:11;;;;;;;5.15;2.90;;;;;;;;;;5064104;28;20067;-89
2021/10/20 11:49:42;;;;;;;4.97;2.83;;;;;;;;;;5064433;28;20056;-88
2021/10/20 11:52:11;;;;;;;4.63;2.80;;;;;;;;;;5061181;28;20429;-84
2021/10/20 11:54:38;;;;;;;4.07;3.00;;;;;;;;;;5062759;28;20056;-86
2021/10/20 11:57:07;;;;;;;3.70;2.78;;;;;;;;;;5061474;28;20068;-87
2021/10/20 11:59:34;;;;;;;4.85;3.22;;;;;;;;;;5063605;28;20118;-86
2021/10/20 12:02:01;;;;;;;5.45;3.20;;;;;;;;;;5069293;28;20075;-86
2021/10/20 12:04:29;;;;;;;4.22;2.72;;;;;;;;;;5063471;28;20099;-87
2021/10/20 12:06:59;;;;;;;4.93;3.20;;;;;;;;;;5062962;28;20108;-87
2021/10/20 12:09:28;;;;;;;3.63;2.63;;;;;;;;;;5066386;28;20048;-87
2021/10/20 12:11:55;;;;;;;5.30;2.80;;;;;;;;;;5069188;28;20052;-86
2021/10/20 12:14:24;;;;;;;5.32;3.05;;;;;;;;;;5060740;28;20064;-87
2021/10/20 12:16:51;;;;;;;5.05;3.10;;;;;;;;;;5064860;28;20784;-87
2021/10/20 12:19:21;;;;;;;4.45;2.90;;;;;;;;;;5067418;28;20113;-85
2021/10/20 12:21:48;;;;;;;5.05;2.72;;;;;;;;;;5061511;28;20836;-86
2021/10/20 12:24:18;;;;;;;5.00;3.10;;;;;;;;;;5063803;28;20076;-88
2021/10/20 12:26:45;;;;;;;4.45;3.20;;;;;;;;;;5060183;28;20039;-86
2021/10/20 12:29:13;;;;;;;5.15;3.10;;;;;;;;;;5058714;28;20086;-89
2021/10/20 12:31:39;;;;;;;6.57;3.20;;;;;;;;;;5067665;28;20033;-86
2021/10/20 12:34:06;;;;;;;4.38;2.78;;;;;;;;;;5071493;28;20532;-86
2021/10/20 12:36:34;;;;;;;4.78;3.45;;;;;;;;;;5067993;28;20025;-87
2021/10/20 12:39:01;;;;;;;6.47;3.13;;;;;;;;;;5073665;28;20633;-86
2021/10/20 12:41:29;;;;;;;6.93;2.97;;;;;;;;;;5065422;28;20036;-88
2021/10/20 12:43:56;;;;;;;6.13;3.50;;;;;;;;;;5074780;28;20024;-88
2021/10/20 12:46:23;;;;;;;8.68;3.17;;;;;;;;;;5077014;28;20576;-88
2021/10/20 12:48:50;;;;;;;5.28;3.00;;;;;;;;;;5071384;28;20044;-88
2021/10/20 12:51:18;;;;;;;6.28;3.45;;;;;;;;;;5071412;28;20108;-86
2021/10/20 12:53:48;;;;;;;4.13;2.92;;;;;;;;;;5070755;28;20071;-87
2021/10/20 12:56:16;;;;;;;4.95;3.30;;;;;;;;;;5066956;28;20066;-77
2021/10/20 12:58:42;;;;;;;4.82;2.92;;;;;;;;;;5068010;28;20570;-79
2021/10/20 13:01:09;;;;;;;5.20;2.92;;;;;;;;;;5063875;28;20054;-89
2021/10/20 13:03:36;;;;;;;5.82;3.40;;;;;;;;;;5074588;28;20117;-89
2021/10/20 13:06:03;;;;;;;4.90;2.85;;;;;;;;;;5075290;28;20032;-82
2021/10/20 13:08:30;;;;;;;7.10;3.35;;;;;;;;;;5076371;28;20028;-90
2021/10/20 13:10:56;;;;;;;6.93;3.25;;;;;;;;;;5077444;28;20025;-86
2021/10/20 13:13:24;;;;;;;5.68;3.30;;;;;;;;;;5091455;28;20044;-85
2021/10/20 13:15:51;;;;;;;5.88;3.20;;;;;;;;;;5089611;28;20028;-85
2021/10/20 13:18:18;;;;;;;4.90;2.97;;;;;;;;;;5079741;28;20029;-85
2021/10/20 13:20:45;;;;;;;6.68;3.33;;;;;;;;;;5080553;28;20044;-85
2021/10/20 13:23:11;;;;;;;5.00;2.85;;;;;;;;;;5069953;28;20032;-85
2021/10/20 13:25:39;;;;;;;3.97;3.08;;;;;;;;;;5073641;28;20044;-85
2021/10/20 13:28:06;;;;;;;7.13;3.30;;;;;;;;;;5073847;28;20036;-86
2021/10/20 13:30:33;;;;;;;6.65;3.17;;;;;;;;;;5060213;28;20029;-86
2021/10/20 13:33:02;;;;;;;4.82;3.20;;;;;;;;;;5072140;28;20036;-86
2021/10/20 13:35:29;;;;;;;5.68;3.22;;;;;;;;;;5068370;28;20903;-86
2021/10/20 13:37:57;;;;;;;4.95;3.00;;;;;;;;;;5062346;28;20574;-86
2021/10/20 13:40:24;;;;;;;5.25;3.20;;;;;;;;;;5064917;28;20033;-86
2021/10/20 13:42:51;;;;;;;5.90;3.20;;;;;;;;;;5061844;28;20404;-85
2021/10/20 13:45:18;;;;;;;6.60;3.22;;;;;;;;;;5059696;28;20033;-78
2021/10/20 13:47:45;;;;;;;6.28;3.30;;;;;;;;;;5060886;28;20130;-79
2021/10/20 13:50:12;;;;;;;6.90;3.28;;;;;;;;;;5066887;28;20059;-78
2021/10/20 13:52:38;;;;;;;5.80;3.00;;;;;;;;;;5067323;28;20056;-78
2021/10/20 13:55:05;;;;;;;4.75;2.90;;;;;;;;;;5063505;28;20083;-78
2021/10/20 13:57:31;;;;;;;5.82;3.20;;;;;;;;;;5067338;28;20087;-78
2021/10/20 13:59:58;;;;;;;5.20;3.40;;;;;;;;;;5067970;28;20056;-79
2021/10/20 14:02:24;;;;;;;5.63;3.10;;;;;;;;;;5062359;28;20087;-79
2021/10/20 14:04:53;;;;;;;5.60;3.15;;;;;;;;;;5070436;28;20067;-80
2021/10/20 14:07:20;;;;;;;5.47;2.97;;;;;;;;;;5070019;28;20452;-81
2021/10/20 14:09:47;;;;;;;4.70;2.88;;;;;;;;;;5060247;28;20099;-81
2021/10/20 14:12:13;;;;;;;6.03;3.17;;;;;;;;;;5058161;28;20064;-81
2021/10/20 14:14:40;;;;;;;5.47;3.20;;;;;;;;;;5064597;28;20033;-81
2021/10/20 14:17:08;;;;;;;4.85;2.85;;;;;;;;;;5066652;28;20689;-79
2021/10/20 14:19:35;;;;;;;5.05;3.00;;;;;;;;;;5062800;28;20065;-79
2021/10/20 14:22:01;;;;;;;5.93;3.08;;;;;;;;;;5060248;28;20060;-80
2021/10/20 14:24:28;;;;;;;4.47;2.90;;;;;;;;;;5065854;28;20056;-79
2021/10/20 14:26:55;;;;;;;4.18;2.95;;;;;;;;;;5064191;28;20496;-79
2021/10/20 14:29:22;;;;;;;5.72;3.00;;;;;;;;;;5047442;28;20048;-80
2021/10/20 14:31:53;;;;;;;4.25;2.85;;;;;;;;;;5058517;28;20082;-83
2021/10/20 14:34:20;;;;;;;5.75;3.20;;;;;;;;;;5069639;28;20072;-83
2021/10/20 14:36:47;;;;;;;4.30;2.78;;;;;;;;;;5067818;28;20055;-82
2021/10/20 14:39:13;;;;;;;5.93;3.25;;;;;;;;;;5061380;28;20029;-82
2021/10/20 14:41:41;;;;;;;4.68;2.65;;;;;;;;;;5060314;28;20036;-82
2021/10/20 14:44:09;;;;;;;4.60;2.80;;;;;;;;;;5063866;28;20057;-82